Myrtle Beach, South Carolina
Current Conditions -  °F | °C
As of 9:45 AM on Monday 22 Dec 2014 (Local Time) from KMYR Reporting Station
Haze Haze  
Wind Chill:   Ceiling: 500
Heat Index:   Visibility: 4mi
Dew Point:   Wind: 12mph
Humidity: 87%   Direction: 10°N
Pressure: 30.09"   Gusts: NA
Location:  33.69°N, 78.88°W
Report Text: KMYR 221445Z 01010KT 4SM BR OVC005 07/05 A3009
Loading
Personal Weather Stations






























Interactive Weather Map New forecast layout! Learn more

10-Day Weather Forecast

Advertisements
Track Severe Weather on mobile